Terminal Aerodrome Forecast
Issued by NWS

Home | Current Version | Previous Version | Graphics & Text | Print | Product List | Glossary On
Versions: 1 2 3 4 5 6 7 8 9 10 11 12 13 14 15 16 17 18 19
000
FTUS43 KOAX 042338
TAFCDR
TAF
KCDR 042338Z 0500/0524 15009KT P6SM VCTS BKN070CB
     FM050600 18010KT P6SM SCT070
     FM051500 19014G24KT P6SM BKN070
     FM052000 16015G25KT P6SM VCTS BKN070CB
      TEMPO 0520/0524 VRB20G35KT 4SM TSRA BKN035CB=

USA.gov is the U.S. government's official web portal to all federal, state and local government web resources and services.